sensor_id;sensor_type;location;lat;lon;timestamp;P1;durP1;ratioP1;P2;durP2;ratioP2
12367;SDS011;6248;49.812;6.620;2022-12-18T00:00:07;17.50;;;10.57;;
12367;SDS011;6248;49.812;6.620;2022-12-18T00:02:34;13.97;;;8.43;;
12367;SDS011;6248;49.812;6.620;2022-12-18T00:05:02;27.47;;;15.77;;
12367;SDS011;6248;49.812;6.620;2022-12-18T00:07:29;32.27;;;18.27;;
12367;SDS011;6248;49.812;6.620;2022-12-18T00:09:56;35.60;;;18.13;;
12367;SDS011;6248;49.812;6.620;2022-12-18T00:12:23;33.90;;;17.67;;
12367;SDS011;6248;49.812;6.620;2022-12-18T00:14:52;25.73;;;15.00;;
12367;SDS011;6248;49.812;6.620;2022-12-18T00:17:19;19.40;;;12.43;;
12367;SDS011;6248;49.812;6.620;2022-12-18T00:19:46;17.40;;;9.60;;
12367;SDS011;6248;49.812;6.620;2022-12-18T00:22:14;14.33;;;7.97;;
12367;SDS011;6248;49.812;6.620;2022-12-18T00:24:41;12.20;;;7.80;;
12367;SDS011;6248;49.812;6.620;2022-12-18T00:27:08;9.60;;;6.50;;
12367;SDS011;6248;49.812;6.620;2022-12-18T00:29:35;11.60;;;6.70;;
12367;SDS011;6248;49.812;6.620;2022-12-18T00:32:04;11.20;;;5.90;;
12367;SDS011;6248;49.812;6.620;2022-12-18T00:34:31;9.03;;;6.17;;
12367;SDS011;6248;49.812;6.620;2022-12-18T00:36:59;9.37;;;6.17;;
12367;SDS011;6248;49.812;6.620;2022-12-18T00:39:26;8.63;;;5.30;;
12367;SDS011;6248;49.812;6.620;2022-12-18T00:41:53;9.30;;;5.50;;
12367;SDS011;6248;49.812;6.620;2022-12-18T00:44:50;7.53;;;5.37;;
12367;SDS011;6248;49.812;6.620;2022-12-18T00:47:18;10.60;;;6.13;;
12367;SDS011;6248;49.812;6.620;2022-12-18T00:49:46;7.70;;;5.03;;
12367;SDS011;6248;49.812;6.620;2022-12-18T00:52:13;7.30;;;5.17;;
12367;SDS011;6248;49.812;6.620;2022-12-18T00:54:40;7.63;;;5.37;;
12367;SDS011;6248;49.812;6.620;2022-12-18T00:57:07;6.53;;;5.03;;
12367;SDS011;6248;49.812;6.620;2022-12-18T00:59:34;9.90;;;5.50;;
12367;SDS011;6248;49.812;6.620;2022-12-18T01:02:02;9.13;;;5.90;;
12367;SDS011;6248;49.812;6.620;2022-12-18T01:04:32;11.33;;;5.80;;
12367;SDS011;6248;49.812;6.620;2022-12-18T01:06:59;7.23;;;4.57;;
12367;SDS011;6248;49.812;6.620;2022-12-18T01:09:26;6.60;;;4.50;;
12367;SDS011;6248;49.812;6.620;2022-12-18T01:11:53;8.33;;;5.10;;
12367;SDS011;6248;49.812;6.620;2022-12-18T01:14:21;8.47;;;5.00;;
12367;SDS011;6248;49.812;6.620;2022-12-18T01:16:48;8.27;;;4.80;;
12367;SDS011;6248;49.812;6.620;2022-12-18T01:19:15;8.10;;;5.23;;
12367;SDS011;6248;49.812;6.620;2022-12-18T01:21:43;8.37;;;5.60;;
12367;SDS011;6248;49.812;6.620;2022-12-18T01:24:11;10.53;;;5.80;;
12367;SDS011;6248;49.812;6.620;2022-12-18T01:26:38;8.13;;;5.37;;
12367;SDS011;6248;49.812;6.620;2022-12-18T01:29:06;10.20;;;5.90;;
12367;SDS011;6248;49.812;6.620;2022-12-18T01:31:33;8.53;;;5.60;;
12367;SDS011;6248;49.812;6.620;2022-12-18T01:34:01;9.97;;;5.30;;
12367;SDS011;6248;49.812;6.620;2022-12-18T01:36:29;9.77;;;6.60;;
12367;SDS011;6248;49.812;6.620;2022-12-18T01:38:58;9.80;;;6.10;;
12367;SDS011;6248;49.812;6.620;2022-12-18T01:41:27;8.67;;;6.37;;
12367;SDS011;6248;49.812;6.620;2022-12-18T01:47:01;10.67;;;6.13;;
12367;SDS011;6248;49.812;6.620;2022-12-18T01:49:28;9.93;;;6.33;;
12367;SDS011;6248;49.812;6.620;2022-12-18T01:51:55;10.87;;;6.27;;
12367;SDS011;6248;49.812;6.620;2022-12-18T01:54:24;9.87;;;6.30;;
12367;SDS011;6248;49.812;6.620;2022-12-18T01:56:51;9.47;;;6.57;;
12367;SDS011;6248;49.812;6.620;2022-12-18T01:59:18;9.30;;;6.17;;
12367;SDS011;6248;49.812;6.620;2022-12-18T02:01:45;9.00;;;5.87;;
12367;SDS011;6248;49.812;6.620;2022-12-18T02:04:18;8.87;;;5.80;;
12367;SDS011;6248;49.812;6.620;2022-12-18T02:06:46;10.30;;;5.80;;
12367;SDS011;6248;49.812;6.620;2022-12-18T02:09:15;8.70;;;5.60;;
12367;SDS011;6248;49.812;6.620;2022-12-18T02:11:47;9.70;;;6.00;;
12367;SDS011;6248;49.812;6.620;2022-12-18T02:14:18;10.63;;;7.53;;
12367;SDS011;6248;49.812;6.620;2022-12-18T02:16:50;12.93;;;8.63;;
12367;SDS011;6248;49.812;6.620;2022-12-18T02:19:38;12.97;;;7.90;;
12367;SDS011;6248;49.812;6.620;2022-12-18T02:22:09;13.30;;;7.80;;
12367;SDS011;6248;49.812;6.620;2022-12-18T02:24:39;13.13;;;7.70;;
12367;SDS011;6248;49.812;6.620;2022-12-18T02:27:09;11.77;;;7.57;;
12367;SDS011;6248;49.812;6.620;2022-12-18T02:29:38;11.73;;;7.73;;
12367;SDS011;6248;49.812;6.620;2022-12-18T02:32:06;11.17;;;7.00;;
12367;SDS011;6248;49.812;6.620;2022-12-18T02:34:36;9.43;;;6.30;;
12367;SDS011;6248;49.812;6.620;2022-12-18T02:37:05;8.87;;;6.20;;
12367;SDS011;6248;49.812;6.620;2022-12-18T02:39:34;10.30;;;6.30;;
12367;SDS011;6248;49.812;6.620;2022-12-18T02:42:02;9.40;;;6.43;;
12367;SDS011;6248;49.812;6.620;2022-12-18T02:44:34;8.70;;;5.70;;
12367;SDS011;6248;49.812;6.620;2022-12-18T02:47:01;8.87;;;6.00;;
12367;SDS011;6248;49.812;6.620;2022-12-18T02:49:31;10.63;;;5.60;;
12367;SDS011;6248;49.812;6.620;2022-12-18T02:52:05;8.53;;;5.90;;
12367;SDS011;6248;49.812;6.620;2022-12-18T02:54:36;7.83;;;5.40;;
12367;SDS011;6248;49.812;6.620;2022-12-18T02:57:06;11.33;;;6.13;;
12367;SDS011;6248;49.812;6.620;2022-12-18T02:59:38;9.50;;;6.30;;
12367;SDS011;6248;49.812;6.620;2022-12-18T03:04:43;8.83;;;5.47;;
12367;SDS011;6248;49.812;6.620;2022-12-18T03:07:15;7.83;;;5.67;;
12367;SDS011;6248;49.812;6.620;2022-12-18T03:09:44;7.47;;;5.40;;
12367;SDS011;6248;49.812;6.620;2022-12-18T03:12:15;8.37;;;5.80;;
12367;SDS011;6248;49.812;6.620;2022-12-18T03:14:50;8.27;;;5.77;;
12367;SDS011;6248;49.812;6.620;2022-12-18T03:17:20;8.73;;;5.80;;
12367;SDS011;6248;49.812;6.620;2022-12-18T03:19:49;9.93;;;6.20;;
12367;SDS011;6248;49.812;6.620;2022-12-18T03:22:16;10.27;;;6.60;;
12367;SDS011;6248;49.812;6.620;2022-12-18T03:24:44;10.77;;;6.63;;
12367;SDS011;6248;49.812;6.620;2022-12-18T03:27:12;9.83;;;6.37;;
12367;SDS011;6248;49.812;6.620;2022-12-18T03:29:43;11.20;;;6.87;;
12367;SDS011;6248;49.812;6.620;2022-12-18T03:32:14;10.20;;;6.43;;
12367;SDS011;6248;49.812;6.620;2022-12-18T03:34:42;10.10;;;6.87;;
12367;SDS011;6248;49.812;6.620;2022-12-18T03:37:11;11.97;;;6.93;;
12367;SDS011;6248;49.812;6.620;2022-12-18T03:39:38;7.90;;;5.67;;
12367;SDS011;6248;49.812;6.620;2022-12-18T03:42:05;11.77;;;6.47;;
12367;SDS011;6248;49.812;6.620;2022-12-18T03:44:35;10.27;;;6.50;;
12367;SDS011;6248;49.812;6.620;2022-12-18T03:47:05;10.33;;;6.40;;
12367;SDS011;6248;49.812;6.620;2022-12-18T03:49:36;8.77;;;6.03;;
12367;SDS011;6248;49.812;6.620;2022-12-18T03:52:06;10.47;;;6.30;;
12367;SDS011;6248;49.812;6.620;2022-12-18T03:54:34;11.40;;;6.97;;
12367;SDS011;6248;49.812;6.620;2022-12-18T03:57:03;10.77;;;6.43;;
12367;SDS011;6248;49.812;6.620;2022-12-18T03:59:31;10.83;;;6.00;;
12367;SDS011;6248;49.812;6.620;2022-12-18T04:02:00;11.33;;;7.30;;
12367;SDS011;6248;49.812;6.620;2022-12-18T04:04:28;10.13;;;6.60;;
12367;SDS011;6248;49.812;6.620;2022-12-18T04:06:57;11.57;;;6.90;;
12367;SDS011;6248;49.812;6.620;2022-12-18T04:09:25;11.23;;;7.00;;
12367;SDS011;6248;49.812;6.620;2022-12-18T04:11:52;10.37;;;6.60;;
12367;SDS011;6248;49.812;6.620;2022-12-18T04:14:19;11.97;;;6.30;;
12367;SDS011;6248;49.812;6.620;2022-12-18T04:16:46;9.37;;;6.53;;
12367;SDS011;6248;49.812;6.620;2022-12-18T04:19:14;11.50;;;7.10;;
12367;SDS011;6248;49.812;6.620;2022-12-18T04:21:41;11.00;;;6.97;;
12367;SDS011;6248;49.812;6.620;2022-12-18T04:24:09;13.20;;;7.90;;
12367;SDS011;6248;49.812;6.620;2022-12-18T04:26:36;11.90;;;7.83;;
12367;SDS011;6248;49.812;6.620;2022-12-18T04:29:04;13.80;;;8.13;;
12367;SDS011;6248;49.812;6.620;2022-12-18T04:31:31;17.53;;;10.93;;
12367;SDS011;6248;49.812;6.620;2022-12-18T04:33:58;19.00;;;11.80;;
12367;SDS011;6248;49.812;6.620;2022-12-18T04:36:25;16.30;;;10.50;;
12367;SDS011;6248;49.812;6.620;2022-12-18T04:38:52;14.70;;;9.23;;
12367;SDS011;6248;49.812;6.620;2022-12-18T04:41:21;12.20;;;7.90;;
12367;SDS011;6248;49.812;6.620;2022-12-18T04:43:48;10.47;;;6.87;;
12367;SDS011;6248;49.812;6.620;2022-12-18T04:46:15;12.57;;;8.27;;
12367;SDS011;6248;49.812;6.620;2022-12-18T04:48:44;13.77;;;8.50;;
12367;SDS011;6248;49.812;6.620;2022-12-18T04:51:12;14.23;;;8.50;;
12367;SDS011;6248;49.812;6.620;2022-12-18T04:53:39;11.00;;;7.60;;
12367;SDS011;6248;49.812;6.620;2022-12-18T04:56:07;13.63;;;7.73;;
12367;SDS011;6248;49.812;6.620;2022-12-18T04:58:36;13.13;;;7.93;;
12367;SDS011;6248;49.812;6.620;2022-12-18T05:01:03;11.97;;;7.80;;
12367;SDS011;6248;49.812;6.620;2022-12-18T05:03:31;14.83;;;7.73;;
12367;SDS011;6248;49.812;6.620;2022-12-18T05:05:58;12.50;;;7.60;;
12367;SDS011;6248;49.812;6.620;2022-12-18T05:08:25;11.73;;;6.93;;
12367;SDS011;6248;49.812;6.620;2022-12-18T05:10:57;11.27;;;7.53;;
12367;SDS011;6248;49.812;6.620;2022-12-18T05:13:25;11.37;;;7.43;;
12367;SDS011;6248;49.812;6.620;2022-12-18T05:15:53;12.07;;;7.10;;
12367;SDS011;6248;49.812;6.620;2022-12-18T05:18:21;11.17;;;6.50;;
12367;SDS011;6248;49.812;6.620;2022-12-18T05:20:48;12.37;;;7.47;;
12367;SDS011;6248;49.812;6.620;2022-12-18T05:23:15;11.30;;;7.00;;
12367;SDS011;6248;49.812;6.620;2022-12-18T05:25:46;13.60;;;7.67;;
12367;SDS011;6248;49.812;6.620;2022-12-18T05:28:13;12.23;;;7.33;;
12367;SDS011;6248;49.812;6.620;2022-12-18T05:30:40;10.63;;;6.70;;
12367;SDS011;6248;49.812;6.620;2022-12-18T05:33:08;11.77;;;7.63;;
12367;SDS011;6248;49.812;6.620;2022-12-18T05:35:35;11.33;;;7.73;;
12367;SDS011;6248;49.812;6.620;2022-12-18T05:38:02;12.40;;;7.47;;
12367;SDS011;6248;49.812;6.620;2022-12-18T05:40:30;10.97;;;7.07;;
12367;SDS011;6248;49.812;6.620;2022-12-18T05:42:57;12.40;;;7.30;;
12367;SDS011;6248;49.812;6.620;2022-12-18T05:45:24;10.40;;;7.40;;
12367;SDS011;6248;49.812;6.620;2022-12-18T05:47:51;11.40;;;7.80;;
12367;SDS011;6248;49.812;6.620;2022-12-18T05:50:20;12.20;;;7.33;;
12367;SDS011;6248;49.812;6.620;2022-12-18T05:52:47;11.97;;;7.77;;
12367;SDS011;6248;49.812;6.620;2022-12-18T05:55:14;13.23;;;6.93;;
12367;SDS011;6248;49.812;6.620;2022-12-18T05:57:41;13.40;;;8.20;;
12367;SDS011;6248;49.812;6.620;2022-12-18T06:00:10;11.50;;;7.73;;
12367;SDS011;6248;49.812;6.620;2022-12-18T06:02:38;14.00;;;8.70;;
12367;SDS011;6248;49.812;6.620;2022-12-18T06:05:05;13.23;;;7.77;;
12367;SDS011;6248;49.812;6.620;2022-12-18T06:07:33;12.17;;;7.20;;
12367;SDS011;6248;49.812;6.620;2022-12-18T06:10:01;12.33;;;8.13;;
12367;SDS011;6248;49.812;6.620;2022-12-18T06:12:28;12.67;;;8.50;;
12367;SDS011;6248;49.812;6.620;2022-12-18T06:14:55;11.17;;;7.30;;
12367;SDS011;6248;49.812;6.620;2022-12-18T06:17:22;11.07;;;7.87;;
12367;SDS011;6248;49.812;6.620;2022-12-18T06:19:49;12.03;;;7.70;;
12367;SDS011;6248;49.812;6.620;2022-12-18T06:22:16;11.87;;;7.90;;
12367;SDS011;6248;49.812;6.620;2022-12-18T06:24:45;14.63;;;8.00;;
12367;SDS011;6248;49.812;6.620;2022-12-18T06:27:12;11.83;;;7.37;;
12367;SDS011;6248;49.812;6.620;2022-12-18T06:29:39;13.50;;;8.07;;
12367;SDS011;6248;49.812;6.620;2022-12-18T06:32:06;9.80;;;6.90;;
12367;SDS011;6248;49.812;6.620;2022-12-18T06:34:33;12.27;;;7.57;;
12367;SDS011;6248;49.812;6.620;2022-12-18T06:37:01;11.67;;;8.27;;
12367;SDS011;6248;49.812;6.620;2022-12-18T06:39:28;12.33;;;7.87;;
12367;SDS011;6248;49.812;6.620;2022-12-18T06:41:56;12.33;;;7.80;;
12367;SDS011;6248;49.812;6.620;2022-12-18T06:44:23;14.40;;;8.87;;
12367;SDS011;6248;49.812;6.620;2022-12-18T06:46:50;12.63;;;7.60;;
12367;SDS011;6248;49.812;6.620;2022-12-18T06:49:18;14.40;;;9.37;;
12367;SDS011;6248;49.812;6.620;2022-12-18T06:51:45;14.90;;;9.60;;
12367;SDS011;6248;49.812;6.620;2022-12-18T06:54:12;13.77;;;8.40;;
12367;SDS011;6248;49.812;6.620;2022-12-18T06:56:39;15.03;;;9.07;;
12367;SDS011;6248;49.812;6.620;2022-12-18T06:59:07;16.57;;;10.20;;
12367;SDS011;6248;49.812;6.620;2022-12-18T07:01:35;17.37;;;10.17;;
12367;SDS011;6248;49.812;6.620;2022-12-18T07:04:02;16.47;;;9.47;;
12367;SDS011;6248;49.812;6.620;2022-12-18T07:06:29;14.73;;;9.27;;
12367;SDS011;6248;49.812;6.620;2022-12-18T07:08:59;17.03;;;9.77;;
12367;SDS011;6248;49.812;6.620;2022-12-18T07:11:26;17.73;;;10.40;;
12367;SDS011;6248;49.812;6.620;2022-12-18T07:13:53;15.40;;;9.83;;
12367;SDS011;6248;49.812;6.620;2022-12-18T07:16:22;15.37;;;9.53;;
12367;SDS011;6248;49.812;6.620;2022-12-18T07:18:49;17.63;;;10.37;;
12367;SDS011;6248;49.812;6.620;2022-12-18T07:21:17;15.93;;;9.30;;
12367;SDS011;6248;49.812;6.620;2022-12-18T07:23:44;14.73;;;8.57;;
12367;SDS011;6248;49.812;6.620;2022-12-18T07:26:13;13.87;;;8.67;;
12367;SDS011;6248;49.812;6.620;2022-12-18T07:28:41;13.87;;;8.90;;
12367;SDS011;6248;49.812;6.620;2022-12-18T07:31:09;13.63;;;8.27;;
12367;SDS011;6248;49.812;6.620;2022-12-18T07:33:38;13.13;;;8.67;;
12367;SDS011;6248;49.812;6.620;2022-12-18T07:36:06;15.57;;;9.17;;
12367;SDS011;6248;49.812;6.620;2022-12-18T07:38:33;16.40;;;9.00;;
12367;SDS011;6248;49.812;6.620;2022-12-18T07:41:01;16.53;;;9.00;;
12367;SDS011;6248;49.812;6.620;2022-12-18T07:43:28;14.50;;;9.37;;
12367;SDS011;6248;49.812;6.620;2022-12-18T07:45:55;14.53;;;9.43;;
12367;SDS011;6248;49.812;6.620;2022-12-18T07:48:22;14.50;;;9.27;;
12367;SDS011;6248;49.812;6.620;2022-12-18T07:50:51;12.97;;;8.40;;
12367;SDS011;6248;49.812;6.620;2022-12-18T07:53:18;12.77;;;9.00;;
12367;SDS011;6248;49.812;6.620;2022-12-18T07:55:45;15.60;;;9.10;;
12367;SDS011;6248;49.812;6.620;2022-12-18T07:58:12;19.60;;;10.10;;
12367;SDS011;6248;49.812;6.620;2022-12-18T08:00:39;20.00;;;12.43;;
12367;SDS011;6248;49.812;6.620;2022-12-18T08:03:07;20.47;;;11.80;;
12367;SDS011;6248;49.812;6.620;2022-12-18T08:05:34;18.87;;;11.93;;
12367;SDS011;6248;49.812;6.620;2022-12-18T08:08:02;16.33;;;10.53;;
12367;SDS011;6248;49.812;6.620;2022-12-18T08:10:29;19.80;;;11.57;;
12367;SDS011;6248;49.812;6.620;2022-12-18T08:12:57;18.33;;;10.83;;
12367;SDS011;6248;49.812;6.620;2022-12-18T08:15:24;15.77;;;10.60;;
12367;SDS011;6248;49.812;6.620;2022-12-18T08:17:51;16.50;;;11.03;;
12367;SDS011;6248;49.812;6.620;2022-12-18T08:20:18;20.57;;;12.77;;
12367;SDS011;6248;49.812;6.620;2022-12-18T08:22:45;17.60;;;11.20;;
12367;SDS011;6248;49.812;6.620;2022-12-18T08:25:14;20.50;;;14.43;;
12367;SDS011;6248;49.812;6.620;2022-12-18T08:27:41;19.60;;;13.03;;
12367;SDS011;6248;49.812;6.620;2022-12-18T08:30:09;18.13;;;12.50;;
12367;SDS011;6248;49.812;6.620;2022-12-18T08:32:36;19.63;;;12.73;;
12367;SDS011;6248;49.812;6.620;2022-12-18T08:35:03;20.37;;;13.27;;
12367;SDS011;6248;49.812;6.620;2022-12-18T08:37:31;21.07;;;13.73;;
12367;SDS011;6248;49.812;6.620;2022-12-18T08:39:58;21.00;;;13.90;;
12367;SDS011;6248;49.812;6.620;2022-12-18T08:42:27;22.00;;;14.63;;
12367;SDS011;6248;49.812;6.620;2022-12-18T08:45:12;25.10;;;14.37;;
12367;SDS011;6248;49.812;6.620;2022-12-18T08:47:39;23.63;;;14.53;;
12367;SDS011;6248;49.812;6.620;2022-12-18T08:50:07;21.87;;;13.83;;
12367;SDS011;6248;49.812;6.620;2022-12-18T08:52:34;20.83;;;12.67;;
12367;SDS011;6248;49.812;6.620;2022-12-18T08:55:01;16.63;;;10.93;;
12367;SDS011;6248;49.812;6.620;2022-12-18T08:57:29;17.53;;;11.10;;
12367;SDS011;6248;49.812;6.620;2022-12-18T08:59:57;17.10;;;10.97;;
12367;SDS011;6248;49.812;6.620;2022-12-18T09:02:24;15.40;;;10.23;;
12367;SDS011;6248;49.812;6.620;2022-12-18T09:04:51;15.70;;;10.10;;
12367;SDS011;6248;49.812;6.620;2022-12-18T09:07:18;16.90;;;11.40;;
12367;SDS011;6248;49.812;6.620;2022-12-18T09:09:45;16.97;;;11.37;;
12367;SDS011;6248;49.812;6.620;2022-12-18T09:12:13;17.20;;;11.07;;
12367;SDS011;6248;49.812;6.620;2022-12-18T09:14:41;15.47;;;10.37;;
12367;SDS011;6248;49.812;6.620;2022-12-18T09:17:09;18.50;;;10.97;;
12367;SDS011;6248;49.812;6.620;2022-12-18T09:19:38;22.63;;;13.63;;
12367;SDS011;6248;49.812;6.620;2022-12-18T09:22:06;27.27;;;17.13;;
12367;SDS011;6248;49.812;6.620;2022-12-18T09:24:34;31.47;;;21.03;;
12367;SDS011;6248;49.812;6.620;2022-12-18T09:27:01;38.67;;;23.40;;
12367;SDS011;6248;49.812;6.620;2022-12-18T09:29:29;39.53;;;23.80;;
12367;SDS011;6248;49.812;6.620;2022-12-18T09:31:57;37.07;;;24.43;;
12367;SDS011;6248;49.812;6.620;2022-12-18T09:34:24;49.93;;;31.10;;
12367;SDS011;6248;49.812;6.620;2022-12-18T09:36:52;43.40;;;28.37;;
12367;SDS011;6248;49.812;6.620;2022-12-18T09:39:22;40.60;;;25.13;;
12367;SDS011;6248;49.812;6.620;2022-12-18T09:41:50;32.70;;;21.67;;
12367;SDS011;6248;49.812;6.620;2022-12-18T09:44:23;32.83;;;20.67;;
12367;SDS011;6248;49.812;6.620;2022-12-18T09:46:53;31.80;;;19.87;;
12367;SDS011;6248;49.812;6.620;2022-12-18T09:49:24;31.37;;;19.60;;
12367;SDS011;6248;49.812;6.620;2022-12-18T09:51:54;29.27;;;18.73;;
12367;SDS011;6248;49.812;6.620;2022-12-18T09:54:24;29.30;;;19.47;;
12367;SDS011;6248;49.812;6.620;2022-12-18T09:56:52;31.33;;;21.93;;
12367;SDS011;6248;49.812;6.620;2022-12-18T09:59:22;32.83;;;23.40;;
12367;SDS011;6248;49.812;6.620;2022-12-18T10:01:50;33.97;;;23.13;;
12367;SDS011;6248;49.812;6.620;2022-12-18T10:04:18;30.60;;;20.93;;
12367;SDS011;6248;49.812;6.620;2022-12-18T10:06:48;28.40;;;18.93;;
12367;SDS011;6248;49.812;6.620;2022-12-18T10:09:23;26.77;;;18.73;;
12367;SDS011;6248;49.812;6.620;2022-12-18T10:11:55;27.03;;;17.57;;
12367;SDS011;6248;49.812;6.620;2022-12-18T10:14:27;24.63;;;17.30;;
12367;SDS011;6248;49.812;6.620;2022-12-18T10:16:58;22.73;;;15.77;;
12367;SDS011;6248;49.812;6.620;2022-12-18T10:19:32;21.30;;;16.07;;
12367;SDS011;6248;49.812;6.620;2022-12-18T10:22:03;21.30;;;14.43;;
12367;SDS011;6248;49.812;6.620;2022-12-18T10:24:38;19.80;;;14.13;;
12367;SDS011;6248;49.812;6.620;2022-12-18T10:27:10;19.70;;;13.20;;
12367;SDS011;6248;49.812;6.620;2022-12-18T10:29:39;21.30;;;13.57;;
12367;SDS011;6248;49.812;6.620;2022-12-18T10:32:07;17.83;;;12.33;;
12367;SDS011;6248;49.812;6.620;2022-12-18T10:34:36;22.03;;;13.00;;
12367;SDS011;6248;49.812;6.620;2022-12-18T10:37:06;18.13;;;12.10;;
12367;SDS011;6248;49.812;6.620;2022-12-18T10:39:33;20.83;;;14.47;;
12367;SDS011;6248;49.812;6.620;2022-12-18T10:42:09;19.13;;;12.57;;
12367;SDS011;6248;49.812;6.620;2022-12-18T10:44:38;17.73;;;12.23;;
12367;SDS011;6248;49.812;6.620;2022-12-18T10:47:06;16.80;;;11.53;;
12367;SDS011;6248;49.812;6.620;2022-12-18T10:49:38;22.63;;;12.93;;
12367;SDS011;6248;49.812;6.620;2022-12-18T10:52:14;16.80;;;11.43;;
12367;SDS011;6248;49.812;6.620;2022-12-18T10:54:45;17.93;;;12.00;;
12367;SDS011;6248;49.812;6.620;2022-12-18T10:57:14;18.03;;;12.17;;
12367;SDS011;6248;49.812;6.620;2022-12-18T10:59:49;18.57;;;12.20;;
12367;SDS011;6248;49.812;6.620;2022-12-18T11:02:24;17.10;;;11.47;;
12367;SDS011;6248;49.812;6.620;2022-12-18T11:04:52;17.43;;;11.03;;
12367;SDS011;6248;49.812;6.620;2022-12-18T11:07:21;17.33;;;11.80;;
12367;SDS011;6248;49.812;6.620;2022-12-18T11:09:59;18.17;;;12.77;;
12367;SDS011;6248;49.812;6.620;2022-12-18T11:12:28;17.40;;;12.23;;
12367;SDS011;6248;49.812;6.620;2022-12-18T11:14:56;17.00;;;11.67;;
12367;SDS011;6248;49.812;6.620;2022-12-18T11:17:30;15.93;;;11.40;;
12367;SDS011;6248;49.812;6.620;2022-12-18T11:19:59;15.27;;;11.07;;
12367;SDS011;6248;49.812;6.620;2022-12-18T11:22:29;16.83;;;11.50;;
12367;SDS011;6248;49.812;6.620;2022-12-18T11:24:57;18.30;;;12.07;;
12367;SDS011;6248;49.812;6.620;2022-12-18T11:27:26;16.57;;;11.20;;
12367;SDS011;6248;49.812;6.620;2022-12-18T11:30:06;15.03;;;11.13;;
12367;SDS011;6248;49.812;6.620;2022-12-18T11:32:37;18.63;;;12.07;;
12367;SDS011;6248;49.812;6.620;2022-12-18T11:35:10;17.60;;;11.93;;
12367;SDS011;6248;49.812;6.620;2022-12-18T11:37:40;16.73;;;11.33;;
12367;SDS011;6248;49.812;6.620;2022-12-18T11:40:10;19.50;;;12.80;;
12367;SDS011;6248;49.812;6.620;2022-12-18T11:42:41;26.27;;;15.57;;
12367;SDS011;6248;49.812;6.620;2022-12-18T11:45:20;20.70;;;13.87;;
12367;SDS011;6248;49.812;6.620;2022-12-18T11:47:49;19.20;;;12.93;;
12367;SDS011;6248;49.812;6.620;2022-12-18T11:50:20;19.07;;;13.00;;
12367;SDS011;6248;49.812;6.620;2022-12-18T11:52:50;22.30;;;14.03;;
12367;SDS011;6248;49.812;6.620;2022-12-18T11:55:19;23.43;;;14.37;;
12367;SDS011;6248;49.812;6.620;2022-12-18T11:57:52;19.77;;;13.13;;
12367;SDS011;6248;49.812;6.620;2022-12-18T12:00:21;18.90;;;12.63;;
12367;SDS011;6248;49.812;6.620;2022-12-18T12:02:57;17.70;;;12.50;;
12367;SDS011;6248;49.812;6.620;2022-12-18T12:05:31;17.93;;;12.47;;
12367;SDS011;6248;49.812;6.620;2022-12-18T12:08:06;21.50;;;15.30;;
12367;SDS011;6248;49.812;6.620;2022-12-18T12:10:40;19.57;;;12.80;;
12367;SDS011;6248;49.812;6.620;2022-12-18T12:13:16;17.63;;;12.27;;
12367;SDS011;6248;49.812;6.620;2022-12-18T12:15:52;20.90;;;13.67;;
12367;SDS011;6248;49.812;6.620;2022-12-18T12:18:29;16.83;;;12.03;;
12367;SDS011;6248;49.812;6.620;2022-12-18T12:21:01;18.03;;;12.97;;
12367;SDS011;6248;49.812;6.620;2022-12-18T12:23:33;17.30;;;11.67;;
12367;SDS011;6248;49.812;6.620;2022-12-18T12:26:06;16.43;;;12.30;;
12367;SDS011;6248;49.812;6.620;2022-12-18T12:28:39;15.77;;;11.13;;
12367;SDS011;6248;49.812;6.620;2022-12-18T12:31:07;17.53;;;11.33;;
12367;SDS011;6248;49.812;6.620;2022-12-18T12:33:40;16.80;;;11.77;;
12367;SDS011;6248;49.812;6.620;2022-12-18T12:36:13;18.37;;;12.73;;
12367;SDS011;6248;49.812;6.620;2022-12-18T12:38:44;18.93;;;12.97;;
12367;SDS011;6248;49.812;6.620;2022-12-18T12:41:16;21.03;;;14.13;;
12367;SDS011;6248;49.812;6.620;2022-12-18T12:44:02;20.03;;;13.43;;
12367;SDS011;6248;49.812;6.620;2022-12-18T12:46:30;20.30;;;13.77;;
12367;SDS011;6248;49.812;6.620;2022-12-18T12:48:58;32.43;;;19.57;;
12367;SDS011;6248;49.812;6.620;2022-12-18T12:51:27;35.03;;;22.13;;
12367;SDS011;6248;49.812;6.620;2022-12-18T12:53:56;25.60;;;16.93;;
12367;SDS011;6248;49.812;6.620;2022-12-18T12:56:24;21.53;;;14.00;;
12367;SDS011;6248;49.812;6.620;2022-12-18T12:58:57;21.00;;;14.60;;
12367;SDS011;6248;49.812;6.620;2022-12-18T13:01:28;21.60;;;14.00;;
12367;SDS011;6248;49.812;6.620;2022-12-18T13:04:02;19.83;;;13.20;;
12367;SDS011;6248;49.812;6.620;2022-12-18T13:06:33;21.30;;;13.80;;
12367;SDS011;6248;49.812;6.620;2022-12-18T13:09:03;21.43;;;15.53;;
12367;SDS011;6248;49.812;6.620;2022-12-18T13:11:32;20.07;;;14.87;;
12367;SDS011;6248;49.812;6.620;2022-12-18T13:14:30;20.17;;;14.60;;
12367;SDS011;6248;49.812;6.620;2022-12-18T13:17:14;31.13;;;18.93;;
12367;SDS011;6248;49.812;6.620;2022-12-18T13:19:41;28.47;;;18.00;;
12367;SDS011;6248;49.812;6.620;2022-12-18T13:22:19;26.97;;;18.53;;
12367;SDS011;6248;49.812;6.620;2022-12-18T13:24:48;32.30;;;20.23;;
12367;SDS011;6248;49.812;6.620;2022-12-18T13:30:01;23.33;;;16.30;;
12367;SDS011;6248;49.812;6.620;2022-12-18T13:32:28;24.27;;;15.80;;
12367;SDS011;6248;49.812;6.620;2022-12-18T13:37:42;20.17;;;14.33;;
12367;SDS011;6248;49.812;6.620;2022-12-18T13:42:57;23.63;;;14.67;;
12367;SDS011;6248;49.812;6.620;2022-12-18T13:45:45;21.83;;;14.33;;
12367;SDS011;6248;49.812;6.620;2022-12-18T13:48:21;21.30;;;15.07;;
12367;SDS011;6248;49.812;6.620;2022-12-18T13:50:49;21.30;;;14.63;;
12367;SDS011;6248;49.812;6.620;2022-12-18T13:53:20;21.40;;;14.17;;
12367;SDS011;6248;49.812;6.620;2022-12-18T13:55:48;22.93;;;14.53;;
12367;SDS011;6248;49.812;6.620;2022-12-18T13:58:17;24.37;;;15.40;;
12367;SDS011;6248;49.812;6.620;2022-12-18T14:00:44;20.93;;;14.07;;
12367;SDS011;6248;49.812;6.620;2022-12-18T14:03:16;21.27;;;14.83;;
12367;SDS011;6248;49.812;6.620;2022-12-18T14:05:44;22.40;;;15.50;;
12367;SDS011;6248;49.812;6.620;2022-12-18T14:08:12;24.70;;;16.57;;
12367;SDS011;6248;49.812;6.620;2022-12-18T14:10:40;25.00;;;16.50;;
12367;SDS011;6248;49.812;6.620;2022-12-18T14:13:08;23.30;;;16.20;;
12367;SDS011;6248;49.812;6.620;2022-12-18T14:15:39;24.13;;;15.43;;
12367;SDS011;6248;49.812;6.620;2022-12-18T14:18:13;23.50;;;14.70;;
12367;SDS011;6248;49.812;6.620;2022-12-18T14:20:44;22.23;;;15.03;;
12367;SDS011;6248;49.812;6.620;2022-12-18T14:23:24;22.87;;;14.93;;
12367;SDS011;6248;49.812;6.620;2022-12-18T14:25:52;22.77;;;15.87;;
12367;SDS011;6248;49.812;6.620;2022-12-18T14:28:19;23.40;;;15.77;;
12367;SDS011;6248;49.812;6.620;2022-12-18T14:30:48;27.80;;;18.67;;
12367;SDS011;6248;49.812;6.620;2022-12-18T14:33:16;28.17;;;18.83;;
12367;SDS011;6248;49.812;6.620;2022-12-18T14:35:52;29.17;;;19.80;;
12367;SDS011;6248;49.812;6.620;2022-12-18T14:38:22;28.73;;;19.33;;
12367;SDS011;6248;49.812;6.620;2022-12-18T14:40:53;28.50;;;18.80;;
12367;SDS011;6248;49.812;6.620;2022-12-18T14:43:20;28.43;;;18.53;;
12367;SDS011;6248;49.812;6.620;2022-12-18T14:45:49;27.03;;;18.17;;
12367;SDS011;6248;49.812;6.620;2022-12-18T14:48:17;31.57;;;19.70;;
12367;SDS011;6248;49.812;6.620;2022-12-18T14:50:45;29.20;;;18.87;;
12367;SDS011;6248;49.812;6.620;2022-12-18T14:53:21;28.33;;;18.60;;
12367;SDS011;6248;49.812;6.620;2022-12-18T14:55:50;26.23;;;18.03;;
12367;SDS011;6248;49.812;6.620;2022-12-18T14:58:17;28.10;;;17.73;;
12367;SDS011;6248;49.812;6.620;2022-12-18T15:00:44;28.93;;;20.00;;
12367;SDS011;6248;49.812;6.620;2022-12-18T15:03:14;29.93;;;19.30;;
12367;SDS011;6248;49.812;6.620;2022-12-18T15:05:44;27.23;;;18.33;;
12367;SDS011;6248;49.812;6.620;2022-12-18T15:08:27;24.87;;;16.90;;